PATC/TNC METAR and TAF weather

Enter ICAO airport designator
Station Type Date Time Source
PATC METAR 2021/07/26 15:55 UTC NOAA

PATC 261555Z AUTO 18012KT M1/4SM -RA FG VV002 07/07 A2972 RMK AO2 RAB1254E1431B1544SHRAB1431E1544 SLP064 P0000 T00710069


Station Type Date Time Source
PATC Decoded METAR 2021/07/26 15:55 UTC NOAA

Tin City Airways Facilities Sector, AK, United States (PATC) 65-34N 167-55W
Jul 26, 2021 - 11:55 AM EDT / 2021.07.26 1555 UTC
Wind: from the S (180 degrees) at 14 MPH (12 KT):0
Visibility: less than 1/4 mile(s):1
Sky conditions: obscured
Weather: light rain; fog
Precipitation last hour: A trace
Temperature: 44.8 F (7.1 C)
Dew Point: 44.4 F (6.9 C)
Relative Humidity: 98%
Pressure (altimeter): 29.72 in. Hg (1006 hPa)
ob: PATC 261555Z AUTO 18012KT M1/4SM -RA FG VV002 07/07 A2972 RMK AO2 RAB1254E1431B1544SHRAB1431E1544 SLP064 P0000 T00710069
cycle: 16

Station Type Date Time Source
PATC TAF 2016/08/27 04:12 UTC NOAA

TAF PATC 270400Z 2704/2810 18012G18KT 0400 FG OVC002 QNH3015INS TX10/2718Z TN06/2710Z

Example: see airport list